Adair Village, Oregon
Current Conditions -  °F | °C
As of 4:15 PM on Saturday 25 Oct 2014 (Local Time) from KCVO Reporting Station
Overcast Overcast  
Wind Chill: 59°   Ceiling: 3200
Heat Index: 59°   Visibility: 10mi
Dew Point: 54°   Wind: 15mph
Humidity: 82%   Direction: 220°SW
Pressure: 29.59"   Gusts: 24mph
Location:  44.6364°N, 123.28°W
Report Text: KCVO 252315Z AUTO 22013G21KT 10SM FEW020 BKN032 OVC048 15/12 A2959 RMK AO1
Loading
Personal Weather Stations






























Interactive Weather Map
Tropical Storm Tracking
New forecast layout! Learn more

10-Day Weather Forecast

Advertisements
Track Severe Weather on mobile